createdAt,value
2022-09-12T00:01:51.305Z,19.77
2022-09-12T00:04:18.050Z,18.67
2022-09-12T00:06:44.779Z,16.70
2022-09-12T00:09:14.081Z,19.75
2022-09-12T10:48:52.243Z,11.85
2022-09-12T10:51:25.136Z,15.50
2022-09-12T10:53:55.051Z,12.55
2022-09-12T10:56:30.999Z,11.52
2022-09-12T10:59:06.748Z,10.93
2022-09-12T11:01:56.317Z,11.75
2022-09-12T11:04:42.313Z,11.40
2022-09-12T11:07:39.803Z,9.95
2022-09-12T11:10:36.344Z,7.50
2022-09-12T11:13:23.127Z,12.75
2022-09-12T11:16:17.106Z,8.05
2022-09-12T11:19:17.738Z,9.55
2022-09-12T11:21:52.770Z,13.85
2022-09-12T11:24:46.772Z,7.70
2022-09-12T11:27:35.713Z,9.25
2022-09-12T11:30:13.822Z,8.20
2022-09-12T11:33:08.109Z,8.60
2022-09-12T11:35:54.434Z,10.48
2022-09-12T11:38:53.702Z,7.75
2022-09-12T11:41:36.929Z,7.00
2022-09-12T11:44:40.241Z,8.32
2022-09-12T11:47:14.649Z,6.00
2022-09-12T11:49:43.746Z,5.35
2022-09-12T11:55:08.967Z,6.28
2022-09-12T11:57:51.498Z,7.00
2022-09-12T12:00:30.703Z,6.45
2022-09-12T12:03:31.430Z,5.75
2022-09-12T12:06:40.677Z,4.18
2022-09-12T12:09:07.521Z,4.70
2022-09-12T12:11:47.707Z,6.07
2022-09-12T12:14:46.270Z,7.38
2022-09-12T12:17:18.127Z,5.38
2022-09-12T12:19:46.411Z,8.63
2022-09-12T12:22:19.689Z,4.97
2022-09-12T12:25:29.639Z,5.88
2022-09-12T12:28:07.464Z,6.13
2022-09-12T12:30:59.640Z,6.03
2022-09-12T12:33:35.847Z,7.25
2022-09-12T12:36:28.590Z,3.90
2022-09-12T12:39:39.626Z,4.80
2022-09-12T12:42:15.867Z,6.78
2022-09-12T12:44:53.634Z,5.28
2022-09-12T12:48:11.472Z,5.65
2022-09-12T12:50:38.521Z,4.15
2022-09-12T12:56:40.607Z,4.80
2022-09-12T12:59:30.899Z,4.47
2022-09-12T13:02:00.531Z,4.75
2022-09-12T13:04:31.743Z,6.05
2022-09-12T13:07:07.919Z,9.35
2022-09-12T13:09:45.919Z,7.40
2022-09-12T13:12:30.412Z,3.42
2022-09-12T13:15:08.198Z,3.40
2022-09-12T13:17:46.397Z,5.05
2022-09-12T13:20:31.016Z,5.30
2022-09-12T13:23:04.338Z,4.15
2022-09-12T13:25:34.241Z,5.32
2022-09-12T13:28:12.859Z,7.15
2022-09-12T13:30:58.494Z,6.22
2022-09-12T13:33:47.339Z,7.30
2022-09-12T13:39:52.920Z,6.03
2022-09-12T13:42:48.598Z,3.83
2022-09-12T13:45:27.823Z,3.75
2022-09-12T13:48:02.567Z,4.72
2022-09-12T13:50:52.847Z,4.32
2022-09-12T13:56:16.130Z,3.58
2022-09-12T13:59:01.123Z,4.95
2022-09-12T14:01:41.282Z,4.18
2022-09-12T14:04:49.279Z,3.15
2022-09-12T14:07:27.876Z,2.75
2022-09-12T14:10:06.019Z,3.78
2022-09-12T14:12:43.892Z,3.80
2022-09-12T14:15:27.433Z,4.55
2022-09-12T14:18:01.232Z,3.78
2022-09-12T14:20:36.268Z,6.10
2022-09-12T14:23:35.034Z,3.95
2022-09-12T14:26:05.279Z,4.30
2022-09-12T14:28:34.458Z,3.15
2022-09-12T14:31:21.830Z,4.20
2022-09-12T14:33:50.874Z,6.57
2022-09-12T14:39:29.234Z,5.00
2022-09-12T14:45:06.123Z,3.05
2022-09-12T14:47:40.440Z,6.97
2022-09-12T14:50:27.140Z,5.30
2022-09-12T14:53:09.542Z,4.35
2022-09-12T14:55:53.486Z,2.03
2022-09-12T15:01:09.679Z,4.15
2022-09-12T15:03:52.729Z,2.95
2022-09-12T15:06:28.363Z,3.53
2022-09-12T15:09:03.301Z,4.15
2022-09-12T15:11:41.401Z,2.60
2022-09-12T15:14:15.410Z,6.22
2022-09-12T15:16:42.253Z,4.43
2022-09-12T15:19:11.455Z,4.88
2022-09-12T15:21:43.107Z,3.17
2022-09-12T15:26:53.583Z,6.55
2022-09-12T15:29:20.426Z,2.15
2022-09-12T15:31:53.306Z,2.30
2022-09-12T15:37:14.444Z,3.47
2022-09-12T15:39:47.064Z,6.18
2022-09-12T15:42:15.291Z,3.95
2022-09-12T15:44:42.355Z,1.70
2022-09-12T15:47:15.740Z,4.00
2022-09-12T15:49:50.147Z,5.70
2022-09-12T15:52:17.319Z,3.58
2022-09-12T15:54:44.251Z,5.40
2022-09-12T15:57:11.809Z,2.17
2022-09-12T15:59:39.058Z,1.67
2022-09-12T16:02:06.174Z,4.60
2022-09-12T16:04:32.983Z,4.15
2022-09-12T16:06:59.899Z,2.55
2022-09-12T16:09:26.846Z,4.05
2022-09-12T16:11:54.846Z,2.15
2022-09-12T16:14:21.962Z,1.40
2022-09-12T16:16:54.134Z,4.10
2022-09-12T16:19:23.829Z,3.40
2022-09-12T16:21:50.690Z,4.03
2022-09-12T16:24:17.733Z,1.73
2022-09-12T16:26:44.663Z,2.22
2022-09-12T16:29:13.968Z,3.70
2022-09-12T16:31:40.802Z,3.25
2022-09-12T16:34:07.669Z,2.65
2022-09-12T16:36:34.698Z,3.60
2022-09-12T16:41:45.280Z,3.78
2022-09-12T16:44:12.330Z,3.42
2022-09-12T16:46:38.957Z,3.35
2022-09-12T16:49:06.274Z,7.75
2022-09-12T16:51:37.308Z,2.17
2022-09-12T16:54:04.217Z,5.25
2022-09-12T16:56:31.094Z,2.67
2022-09-12T16:58:57.692Z,2.10
2022-09-12T17:01:26.223Z,2.38
2022-09-12T17:03:55.009Z,3.63
2022-09-12T17:06:21.926Z,3.05
2022-09-12T17:08:51.272Z,2.53
2022-09-12T17:11:23.228Z,3.22
2022-09-12T17:14:05.284Z,2.45
2022-09-12T17:16:34.830Z,2.95
2022-09-12T17:19:01.535Z,3.25
2022-09-12T17:21:28.171Z,6.30
2022-09-12T17:23:55.302Z,3.15
2022-09-12T17:26:22.421Z,2.70
2022-09-12T17:28:49.554Z,5.88
2022-09-12T17:31:16.329Z,4.10
2022-09-12T17:33:43.396Z,1.77
2022-09-12T17:36:14.875Z,2.53
2022-09-12T17:38:42.621Z,3.53
2022-09-12T17:41:16.736Z,4.18
2022-09-12T17:43:45.082Z,5.45
2022-09-12T17:46:11.847Z,4.00
2022-09-12T17:48:38.503Z,2.42
2022-09-12T17:51:13.651Z,5.00
2022-09-12T17:53:43.548Z,7.60
2022-09-12T17:56:10.897Z,9.55
2022-09-12T17:58:38.200Z,2.67
2022-09-12T18:01:26.592Z,3.13
2022-09-12T18:03:55.340Z,3.50
2022-09-12T18:06:23.304Z,4.00
2022-09-12T18:08:50.109Z,5.28
2022-09-12T18:11:16.818Z,2.38
2022-09-12T18:13:43.627Z,4.20
2022-09-12T18:16:13.223Z,1.67
2022-09-12T18:18:40.393Z,2.50
2022-09-12T18:21:08.994Z,6.43
2022-09-12T18:23:35.880Z,2.55
2022-09-12T18:26:06.022Z,5.72
2022-09-12T18:28:37.131Z,4.80
2022-09-12T18:31:05.025Z,4.68
2022-09-12T18:33:32.112Z,3.47
2022-09-12T18:36:04.607Z,3.05
2022-09-12T18:38:32.300Z,3.83
2022-09-12T18:41:03.563Z,3.25
2022-09-12T18:43:30.245Z,4.07
2022-09-12T18:45:57.109Z,3.67
2022-09-12T18:48:23.744Z,4.18
2022-09-12T18:50:50.384Z,5.43
2022-09-12T18:53:17.037Z,3.40
2022-09-12T18:55:43.657Z,3.63
2022-09-12T18:58:10.276Z,4.88
2022-09-12T19:00:37.012Z,5.53
2022-09-12T19:03:03.802Z,3.70
2022-09-12T19:05:30.561Z,4.32
2022-09-12T19:07:57.172Z,6.30
2022-09-12T19:10:24.182Z,2.70
2022-09-12T19:12:50.751Z,3.28
2022-09-12T19:15:17.514Z,4.18
2022-09-12T19:17:44.631Z,3.47
2022-09-12T19:20:11.247Z,7.20
2022-09-12T19:22:37.848Z,9.60
2022-09-12T19:25:05.364Z,5.28
2022-09-12T19:27:31.949Z,5.50
2022-09-12T19:29:58.573Z,11.68
2022-09-12T19:32:25.200Z,4.13
2022-09-12T19:34:51.792Z,6.47
2022-09-12T19:37:18.595Z,3.83
2022-09-12T19:39:45.950Z,5.28
2022-09-12T19:42:12.605Z,7.50
2022-09-12T19:44:39.285Z,3.28
2022-09-12T19:47:06.045Z,10.05
2022-09-12T19:49:32.722Z,4.82
2022-09-12T19:51:59.337Z,6.43
2022-09-12T19:54:25.952Z,8.73
2022-09-12T19:56:52.684Z,5.63
2022-09-12T19:59:19.266Z,6.10
2022-09-12T20:01:45.896Z,4.35
2022-09-12T20:04:12.592Z,4.15
2022-09-12T20:06:39.327Z,4.80
2022-09-12T20:09:06.260Z,8.60
2022-09-12T20:11:32.941Z,4.63
2022-09-12T20:13:59.901Z,3.97
2022-09-12T20:16:29.837Z,5.07
2022-09-12T20:18:59.812Z,5.93
2022-09-12T20:21:32.495Z,4.50
2022-09-12T20:24:07.722Z,3.88
2022-09-12T20:26:35.243Z,7.63
2022-09-12T20:29:02.299Z,6.80
2022-09-12T20:31:29.042Z,6.32
2022-09-12T20:33:56.151Z,3.63
2022-09-12T20:36:22.995Z,3.60
2022-09-12T20:38:56.742Z,5.90
2022-09-12T20:41:25.237Z,6.55
2022-09-12T20:43:54.056Z,6.80
2022-09-12T20:46:22.516Z,5.75
2022-09-12T20:48:50.602Z,3.88
2022-09-12T20:51:17.437Z,2.88
2022-09-12T20:53:44.068Z,4.32
2022-09-12T20:56:11.601Z,7.32
2022-09-12T20:58:43.068Z,8.85
2022-09-12T21:01:12.004Z,6.57
2022-09-12T21:03:39.427Z,4.65
2022-09-12T21:06:06.988Z,5.25
2022-09-12T21:08:34.549Z,5.95
2022-09-12T21:11:01.529Z,12.50
2022-09-12T21:13:28.458Z,8.05
2022-09-12T21:15:59.541Z,6.18
2022-09-12T21:18:26.601Z,4.32
2022-09-12T21:20:54.676Z,7.82
2022-09-12T21:23:22.215Z,6.15
2022-09-12T21:25:52.413Z,4.35
2022-09-12T21:28:20.074Z,4.57
2022-09-12T21:30:50.836Z,4.18
2022-09-12T21:33:19.073Z,5.15
2022-09-12T21:35:47.230Z,7.35
2022-09-12T21:38:17.913Z,7.70
2022-09-12T21:40:45.227Z,8.15
2022-09-12T21:43:13.017Z,5.25
2022-09-12T21:45:40.187Z,4.40
2022-09-12T21:48:07.581Z,7.63
2022-09-12T21:50:34.230Z,4.68
2022-09-12T21:53:00.980Z,5.07
2022-09-12T21:55:27.872Z,6.90
2022-09-12T21:57:54.998Z,4.65
2022-09-12T22:00:22.313Z,5.20
2022-09-12T22:02:49.441Z,4.25
2022-09-12T22:05:17.210Z,3.28
2022-09-12T22:07:43.903Z,7.63
2022-09-12T22:10:10.984Z,5.05
2022-09-12T22:12:37.568Z,3.80
2022-09-12T22:15:22.936Z,4.57
2022-09-12T22:17:51.329Z,3.78
2022-09-12T22:20:18.090Z,5.15
2022-09-12T22:23:03.086Z,4.40
2022-09-12T22:25:29.763Z,6.38
2022-09-12T22:27:56.359Z,5.22
2022-09-12T22:30:23.417Z,4.47
2022-09-12T22:32:51.397Z,6.68
2022-09-12T22:35:19.112Z,4.80
2022-09-12T22:37:47.701Z,6.03
2022-09-12T22:40:15.589Z,4.05
2022-09-12T22:42:42.348Z,5.50
2022-09-12T22:45:09.454Z,9.48
2022-09-12T22:47:36.265Z,5.28
2022-09-12T22:50:03.132Z,7.10
2022-09-12T22:52:29.696Z,12.00
2022-09-12T22:54:57.546Z,6.72
2022-09-12T22:57:24.144Z,6.93
